Flight Track Log - Related Links

Times and Time Zones

All times are in EDT time to prevent confusion due to time zone crossing. See the EZY2567 flight status page for this flight to view local times or setup timezone preferences in your user account.

Time Position Orientation Groundspeed Altitude Reporting Facility
EDT Latitude Longitude Course Direction KTS MPH feet Rate Location/Type
Tue 12:50:00 AM 44.8927 7.4433 231° Southwest  Level Estimated
Tue 12:51:00 AM 44.8305 7.3377 230° Southwest  Level Estimated
Tue 12:51:32 AM 45.6120 8.7280 230° Southwest 167 192 1,100  Level FlightAware ADS-B
Tue 12:51:47 AM 45.6010 8.7330 162° South 158 182 1,900 2,640 Climbing FlightAware ADS-B
Tue 12:51:57 AM 45.5950 8.7340 173° South 158 182 2,200 2,000 Climbing FlightAware ADS-B
Tue 12:52:17 AM 45.5810 8.7230 209° Southwest 171 197 2,900 2,057 Climbing FlightAware ADS-B
Tue 12:52:32 AM 45.5720 8.7110 223° Southwest 173 199 3,400 1,650 Climbing FlightAware ADS-B
Tue 12:52:57 AM 45.5550 8.6970 210° Southwest 189 217 4,000 1,309 Climbing FlightAware ADS-B
Tue 12:53:27 AM 45.5310 8.6770 210° Southwest 222 255 4,600 1,067 Climbing FlightAware ADS-B
Tue 12:53:42 AM 45.5150 8.6640 210° Southwest 253 291 4,800 1,650 Climbing FlightAware ADS-B
Tue 12:54:07 AM 45.4880 8.6430 209° Southwest 277 319 5,700 2,945 Climbing FlightAware ADS-B
Tue 12:54:37 AM 45.4540 8.6160 209° Southwest 276 318 7,500 3,491 Climbing FlightAware ADS-B
Tue 12:55:02 AM 45.4240 8.5940 207° Southwest 278 320 8,900 3,000 Climbing FlightAware ADS-B
Tue 12:55:17 AM 45.4080 8.5810 210° Southwest 285 328 9,500 2,400 Climbing FlightAware ADS-B
Tue 12:56:02 AM 45.3540 8.5400 208° Southwest 304 350 11,300 2,471 Climbing FlightAware ADS-B
Tue 12:56:42 AM 45.3030 8.5000 209° Southwest 320 368 13,000 1,950 Climbing FlightAware ADS-B
Tue 12:57:22 AM 45.2490 8.4580 209° Southwest 353 406 13,900 1,553 Climbing FlightAware ADS-B
Tue 12:58:07 AM 45.1840 8.4070 209° Southwest 378 435 15,200 1,482 Climbing FlightAware ADS-B
Tue 12:58:47 AM 45.1190 8.3570 208° Southwest 405 466 16,000 1,800 Climbing FlightAware ADS-B
Tue 12:59:27 AM 45.0530 8.3070 208° Southwest 407 468 17,600 2,612 Climbing FlightAware ADS-B
Tue 01:00:12 AM 44.9790 8.2500 209° Southwest 399 459 19,700 2,965 Climbing FlightAware ADS-B
Tue 01:00:52 AM 44.9140 8.2000 209° Southwest 386 444 21,800 2,047 Climbing FlightAware ADS-B
Tue 01:01:37 AM 44.8440 8.1470 208° Southwest 405 466 22,600 918 Climbing FlightAware ADS-B
Tue 01:02:17 AM 44.7790 8.0970 209° Southwest 430 495 23,100 706 Climbing FlightAware ADS-B
Tue 01:03:02 AM 44.7000 8.0380 208° Southwest 451 519 23,600 988 Climbing FlightAware ADS-B
Tue 01:03:42 AM 44.6240 7.9810 208° Southwest 458 527 24,500 1,575 Climbing FlightAware ADS-B
Tue 01:04:22 AM 44.5520 7.9260 209° Southwest 454 522 25,700 1,271 Climbing FlightAware ADS-B
Tue 01:05:07 AM 44.4650 7.8610 208° Southwest 465 535 26,300 1,059 Climbing FlightAware ADS-B
Tue 01:05:47 AM 44.3870 7.8030 208° Southwest 467 537 27,200 1,425 Climbing FlightAware ADS-B
Tue 01:06:27 AM 44.3150 7.7480 209° Southwest 465 535 28,200 1,418 Climbing FlightAware ADS-B
Tue 01:06:42 AM 44.2840 7.7130 219° Southwest 457 526 28,500 700 Climbing FlightAware ADS-B
Tue 01:07:27 AM 44.2340 7.6020 238° Southwest 460 529 28,900 847 Climbing FlightAware ADS-B
Tue 01:08:07 AM 44.1900 7.4980 239° Southwest 462 532 29,700 1,482 Climbing FlightAware ADS-B
Tue 01:08:52 AM 44.1410 7.3850 239° Southwest 454 522 31,000 1,482 Climbing FlightAware ADS-B
Tue 01:09:32 AM 44.0980 7.2840 239° Southwest 456 525 31,800 1,125 Climbing FlightAware ADS-B
Tue 01:10:12 AM 44.0560 7.1870 239° Southwest 456 525 32,500 800 Climbing FlightAware ADS-B
Tue 01:12:00 AM 43.9499 6.9984 232° Southwest  Level Estimated
Tue 01:13:00 AM 43.8908 6.8940 232° Southwest  Level Estimated
Tue 01:14:00 AM 43.8316 6.7897 232° Southwest  Level Estimated
Tue 01:15:00 AM 43.7723 6.6857 232° Southwest  Level Estimated
Tue 01:16:00 AM 43.7130 6.5819 232° Southwest  Level Estimated
Tue 01:16:02 AM 43.6800 6.3260 232° Southwest 450 518 37,000  Level FlightAware ADS-B
Tue 01:16:47 AM 43.6260 6.2070 238° Southwest 453 521 37,000  Level FlightAware ADS-B
Tue 01:17:27 AM 43.5770 6.1220 232° Southwest 457 526 37,000  Level FlightAware ADS-B
Tue 01:18:22 AM 43.5020 5.9900 232° Southwest 451 519 37,000  Level FlightAware ADS-B
Tue 01:19:22 AM 43.4220 5.8500 232° Southwest 454 522 37,000  Level FlightAware ADS-B
Tue 01:20:02 AM 43.3690 5.7590 231° Southwest 454 522 37,000  Level FlightAware ADS-B
Tue 01:20:57 AM 43.3050 5.6470 232° Southwest 448 516 37,000  Level FlightAware ADS-B
Tue 01:21:42 AM 43.2400 5.5380 231° Southwest 444 511 37,000  Level FlightAware ADS-B
Tue 01:22:22 AM 43.1920 5.4560 231° Southwest 442 509 37,000  Level FlightAware ADS-B
Tue 01:23:17 AM 43.1190 5.3310 231° Southwest 441 507 37,000  Level FlightAware ADS-B
Tue 01:24:02 AM 43.0590 5.2290 231° Southwest 443 510 37,000  Level FlightAware ADS-B
Tue 01:24:42 AM 43.0070 5.1410 231° Southwest 443 510 37,000  Level FlightAware ADS-B
Tue 01:25:17 AM 42.9610 5.0650 230° Southwest 442 509 37,000  Level FlightAware ADS-B
Tue 01:26:07 AM 42.8970 4.9570 231° Southwest 447 514 37,000  Level FlightAware ADS-B
Tue 01:26:47 AM 42.8420 4.8630 231° Southwest 447 514 37,000  Level FlightAware ADS-B
Tue 01:27:27 AM 42.7900 4.7760 231° Southwest 448 516 37,000  Level FlightAware ADS-B
Tue 01:28:22 AM 42.7230 4.6670 230° Southwest 447 514 37,000  Level FlightAware ADS-B
Tue 01:29:07 AM 42.6640 4.5680 231° Southwest 442 509 37,000  Level FlightAware ADS-B
Tue 01:29:42 AM 42.6240 4.5000 231° Southwest 442 509 37,000  Level FlightAware ADS-B
Tue 01:29:57 AM 42.7530 4.7150 51° Northeast 37,000  Level FlightAware ADS-B
Tue 01:30:17 AM 42.5670 4.4080 231° Southwest 446 513 37,000  Level FlightAware ADS-B
Tue 01:30:57 AM 42.5140 4.3200 231° Southwest 445 512 37,000  Level FlightAware ADS-B
Tue 01:31:37 AM 42.4650 4.2390 231° Southwest 445 512 37,000  Level FlightAware ADS-B
Tue 01:32:22 AM 42.4060 4.1440 230° Southwest 446 513 37,000  Level FlightAware ADS-B
Tue 01:33:02 AM 42.3510 4.0540 230° Southwest 448 516 37,000  Level FlightAware ADS-B
Tue 01:33:47 AM 42.2940 3.9610 230° Southwest 448 516 37,000  Level FlightAware ADS-B
Tue 01:34:27 AM 42.2370 3.8690 230° Southwest 448 516 37,000  Level FlightAware ADS-B
Tue 01:35:12 AM 42.1790 3.7750 230° Southwest 449 517 37,000  Level FlightAware ADS-B
Tue 01:35:52 AM 42.1260 3.6880 231° Southwest 448 516 37,000  Level FlightAware ADS-B
Tue 01:36:32 AM 42.0800 3.5970 236° Southwest 438 504 37,000  Level FlightAware ADS-B
Tue 01:37:17 AM 42.0420 3.4930 244° Southwest 432 497 37,000  Level FlightAware ADS-B
Tue 01:37:57 AM 42.0100 3.3960 246° West 432 497 37,000  Level FlightAware ADS-B
Tue 01:38:42 AM 41.9710 3.2790 246° West 434 499 37,000  Level FlightAware ADS-B
Tue 01:39:22 AM 41.9320 3.1840 241° Southwest 444 511 37,000  Level FlightAware ADS-B
Tue 01:40:02 AM 41.8840 3.0980 233° Southwest 451 519 37,000  Level FlightAware ADS-B
Tue 01:40:47 AM 41.8250 2.9950 232° Southwest 451 519 37,000  Level FlightAware ADS-B
Tue 01:41:27 AM 41.7770 2.9120 232° Southwest 451 519 37,000  Level FlightAware ADS-B
Tue 01:42:12 AM 41.7170 2.8070 233° Southwest 450 518 37,000  Level FlightAware ADS-B
Tue 01:42:52 AM 41.6660 2.7200 232° Southwest 450 518 37,000  Level FlightAware ADS-B
Tue 01:43:32 AM 41.6170 2.6370 232° Southwest 450 518 37,000  Level FlightAware ADS-B
Tue 01:44:17 AM 41.5580 2.5350 232° Southwest 451 519 37,000  Level FlightAware ADS-B
Tue 01:44:57 AM 41.5090 2.4510 232° Southwest 452 520 37,000  Level FlightAware ADS-B
Tue 01:45:42 AM 41.4510 2.3510 232° Southwest 453 521 37,000  Level FlightAware ADS-B
Tue 01:46:22 AM 41.3990 2.2630 232° Southwest 453 521 37,000  Level FlightAware ADS-B
Tue 01:47:02 AM 41.3480 2.1760 232° Southwest 453 521 37,000  Level FlightAware ADS-B
Tue 01:47:47 AM 41.2880 2.0790 231° Southwest 456 525 37,000  Level FlightAware ADS-B
Tue 01:48:27 AM 41.2320 1.9970 228° Southwest 456 525 37,000  Level FlightAware ADS-B
Tue 01:49:12 AM 41.1680 1.9030 228° Southwest 454 522 37,000  Level FlightAware ADS-B
Tue 01:49:52 AM 41.1120 1.8190 229° Southwest 453 521 37,000  Level FlightAware ADS-B
Tue 01:50:32 AM 41.0530 1.7330 228° Southwest 454 522 37,000  Level FlightAware ADS-B
Tue 01:51:17 AM 40.9940 1.6460 228° Southwest 454 522 37,000  Level FlightAware ADS-B
Tue 01:51:57 AM 40.9390 1.5660 228° Southwest 455 524 37,000  Level FlightAware ADS-B
Tue 01:52:37 AM 40.8800 1.4800 228° Southwest 457 526 37,000  Level FlightAware ADS-B
Tue 01:53:22 AM 40.8140 1.3850 227° Southwest 457 526 37,000  Level FlightAware ADS-B
Tue 01:54:07 AM 40.7500 1.2910 228° Southwest 458 527 37,000  Level FlightAware ADS-B
Tue 01:54:47 AM 40.6950 1.2120 227° Southwest 456 525 37,000  Level FlightAware ADS-B
Tue 01:55:27 AM 40.6380 1.1310 227° Southwest 457 526 37,000  Level FlightAware ADS-B
Tue 01:56:12 AM 40.5720 1.0350 228° Southwest 457 526 37,000  Level FlightAware ADS-B
Tue 01:56:52 AM 40.5160 0.9550 227° Southwest 456 525 37,000  Level FlightAware ADS-B
Tue 01:57:32 AM 40.4600 0.8760 227° Southwest 457 526 37,000  Level FlightAware ADS-B
Tue 01:58:17 AM 40.3920 0.7780 228° Southwest 459 528 37,000  Level FlightAware ADS-B
Tue 01:58:57 AM 40.3350 0.6980 227° Southwest 459 528 37,000  Level FlightAware ADS-B
Tue 01:59:42 AM 40.2730 0.6090 228° Southwest 459 528 37,000  Level FlightAware ADS-B
Tue 02:00:22 AM 40.2130 0.5250 227° Southwest 460 529 37,000  Level FlightAware ADS-B
Tue 02:01:02 AM 40.1550 0.4430 227° Southwest 461 531 37,000  Level FlightAware ADS-B
Tue 02:01:47 AM 40.0910 0.3540 227° Southwest 461 531 37,000  Level FlightAware ADS-B
Tue 02:02:32 AM 40.0260 0.2630 227° Southwest 461 531 37,000  Level FlightAware ADS-B
Tue 02:03:12 AM 39.9680 0.1820 227° Southwest 461 531 37,000  Level FlightAware ADS-B
Tue 02:03:52 AM 39.9100 0.1010 227° Southwest 461 531 37,000  Level FlightAware ADS-B
Tue 02:04:37 AM 39.8440 0.0100 227° Southwest 461 531 37,000  Level FlightAware ADS-B
Tue 02:05:17 AM 39.7850 -0.0720 227° Southwest 461 531 37,000  Level FlightAware ADS-B
Tue 02:06:02 AM 39.7210 -0.1590 226° Southwest 462 532 37,000  Level FlightAware ADS-B
Tue 02:06:42 AM 39.6620 -0.2410 227° Southwest 463 533 37,000  Level FlightAware ADS-B
Tue 02:07:22 AM 39.6000 -0.3260 227° Southwest 464 534 37,000  Level FlightAware ADS-B
Tue 02:08:07 AM 39.5330 -0.4190 227° Southwest 464 534 37,000  Level FlightAware ADS-B
Tue 02:08:47 AM 39.4740 -0.5020 227° Southwest 462 532 37,000  Level FlightAware ADS-B
Tue 02:09:32 AM 39.4180 -0.5990 233° Southwest 461 531 37,000  Level FlightAware ADS-B
Tue 02:10:12 AM 39.3660 -0.6870 233° Southwest 461 531 37,000  Level FlightAware ADS-B
Tue 02:10:52 AM 39.3150 -0.7730 233° Southwest 461 531 37,000  Level FlightAware ADS-B
Tue 02:11:37 AM 39.2560 -0.8730 233° Southwest 460 529 37,000  Level FlightAware ADS-B
Tue 02:12:17 AM 39.2060 -0.9580 233° Southwest 460 529 37,000  Level FlightAware ADS-B
Tue 02:13:02 AM 39.1470 -1.0570 232° Southwest 458 527 37,000  Level FlightAware ADS-B
Tue 02:13:42 AM 39.0970 -1.1410 233° Southwest 459 528 37,000  Level FlightAware ADS-B
Tue 02:14:22 AM 39.0440 -1.2300 233° Southwest 459 528 37,000  Level FlightAware ADS-B
Tue 02:15:07 AM 38.9880 -1.3240 233° Southwest 457 526 37,000  Level FlightAware ADS-B
Tue 02:15:47 AM 38.9340 -1.4140 232° Southwest 457 526 37,000  Level FlightAware ADS-B
Tue 02:16:32 AM 38.8750 -1.5110 232° Southwest 457 526 37,000  Level FlightAware ADS-B
Tue 02:17:12 AM 38.8230 -1.5960 232° Southwest 458 527 37,000  Level FlightAware ADS-B
Tue 02:17:42 AM 38.7870 -1.6560 232° Southwest 457 526 37,000  Level FlightAware ADS-B
Tue 02:18:37 AM 38.7150 -1.7740 232° Southwest 453 521 37,000  Level FlightAware ADS-B
Tue 02:19:17 AM 38.6650 -1.8570 232° Southwest 454 522 37,000  Level FlightAware ADS-B
Tue 02:20:02 AM 38.6050 -1.9560 232° Southwest 454 522 37,000  Level FlightAware ADS-B
Tue 02:20:42 AM 38.5510 -2.0440 232° Southwest 455 524 37,000  Level FlightAware ADS-B
Tue 02:21:27 AM 38.4930 -2.1380 232° Southwest 455 524 37,000  Level FlightAware ADS-B
Tue 02:22:07 AM 38.4410 -2.2220 232° Southwest 455 524 37,000  Level FlightAware ADS-B
Tue 02:22:47 AM 38.3880 -2.3080 232° Southwest 454 522 37,000  Level FlightAware ADS-B
Tue 02:23:27 AM 38.3330 -2.3900 229° Southwest 461 531 37,000  Level FlightAware ADS-B
Tue 02:24:12 AM 38.2660 -2.4800 227° Southwest 455 524 37,000  Level FlightAware ADS-B
Tue 02:24:57 AM 38.2060 -2.5600 226° Southwest 456 525 37,000  Level FlightAware ADS-B
Tue 02:25:37 AM 38.1400 -2.6470 226° Southwest 461 531 37,000  Level FlightAware ADS-B
Tue 02:26:17 AM 38.0840 -2.7230 227° Southwest 463 533 37,000  Level FlightAware ADS-B
Tue 02:27:02 AM 38.0140 -2.8160 226° Southwest 462 532 37,000  Level FlightAware ADS-B
Tue 02:27:42 AM 37.9560 -2.8930 226° Southwest 462 532 37,000  Level FlightAware ADS-B
Tue 02:28:22 AM 37.8990 -2.9670 226° Southwest 461 531 37,000  Level FlightAware ADS-B
Tue 02:29:22 AM 37.8160 -3.0780 227° Southwest 461 531 37,000  Level FlightAware ADS-B
Tue 02:30:02 AM 37.7650 -3.1440 226° Southwest 461 531 37,000  Level FlightAware ADS-B
Tue 02:30:42 AM 37.7150 -3.2100 226° Southwest 461 531 37,000  Level FlightAware ADS-B
Tue 02:31:22 AM 37.6640 -3.2750 225° Southwest 461 531 37,000  Level FlightAware ADS-B
Tue 02:32:37 AM 37.5260 -3.4560 226° Southwest 460 529 37,000  Level FlightAware ADS-B
Tue 02:33:12 AM 37.4730 -3.5260 226° Southwest 459 528 37,000  Level FlightAware ADS-B
Tue 02:34:02 AM 37.3990 -3.6210 226° Southwest 458 527 37,000  Level FlightAware ADS-B
Tue 02:34:42 AM 37.3390 -3.6990 226° Southwest 451 519 37,000  Level FlightAware ADS-B
Tue 02:35:27 AM 37.2750 -3.7810 226° Southwest 450 518 37,000  Level FlightAware ADS-B
Tue 02:36:02 AM 37.2220 -3.8490 226° Southwest 456 525 37,000  Level FlightAware ADS-B
Tue 02:36:42 AM 37.1690 -3.9180 226° Southwest 451 519 37,000  Level FlightAware ADS-B
Tue 02:37:32 AM 37.0920 -4.0160 225° Southwest 457 526 37,000  Level FlightAware ADS-B
Tue 02:38:12 AM 37.0310 -4.0940 226° Southwest 458 527 37,000  Level FlightAware ADS-B
Tue 02:38:57 AM 36.9660 -4.1760 225° Southwest 461 531 37,000  Level FlightAware ADS-B
Tue 02:39:37 AM 36.9090 -4.2490 226° Southwest 461 531 37,000  Level FlightAware ADS-B
Tue 02:40:17 AM 36.8490 -4.3240 225° Southwest 462 532 37,000  Level FlightAware ADS-B
Tue 02:41:02 AM 36.7710 -4.4040 219° Southwest 464 534 37,000  Level FlightAware ADS-B
Tue 02:41:42 AM 36.6950 -4.4640 212° Southwest 456 525 37,000  Level FlightAware ADS-B
Tue 02:42:22 AM 36.6250 -4.5190 212° Southwest 462 532 37,000  Level FlightAware ADS-B
Tue 02:43:07 AM 36.5430 -4.5850 213° Southwest 461 531 37,000  Level FlightAware ADS-B
Tue 02:43:47 AM 36.4710 -4.6420 212° Southwest 460 529 37,000  Level FlightAware ADS-B
Tue 02:44:27 AM 36.3990 -4.6980 212° Southwest 460 529 37,000  Level FlightAware ADS-B
Tue 02:45:12 AM 36.3180 -4.7620 212° Southwest 459 528 37,000  Level FlightAware ADS-B
Tue 02:45:52 AM 36.2450 -4.8190 212° Southwest 458 527 37,000  Level FlightAware ADS-B
Tue 02:46:37 AM 36.1630 -4.8830 212° Southwest 458 527 37,000  Level FlightAware ADS-B
Tue 02:47:17 AM 36.0920 -4.9390 213° Southwest 458 527 37,000  Level FlightAware ADS-B
Tue 02:48:02 AM 36.0100 -5.0040 213° Southwest 459 528 37,000  Level FlightAware ADS-B
Tue 02:48:42 AM 35.9400 -5.0590 212° Southwest 459 528 37,000  Level FlightAware ADS-B
Tue 02:49:22 AM 35.8670 -5.1170 213° Southwest 459 528 37,000  Level FlightAware ADS-B
Tue 02:50:37 AM 35.7380 -5.2230 214° Southwest 460 529 37,000  Level FlightAware ADS-B
Tue 02:51:27 AM 35.6500 -5.2950 214° Southwest 462 532 37,000  Level FlightAware ADS-B
Tue 02:54:00 AM 35.4637 -5.4887 220° Southwest  Level Estimated
Tue 02:54:27 AM 35.3280 -5.5580 220° Southwest 463 533 37,000  Level FlightAware ADS-B
Tue 02:56:37 AM 35.0980 -5.7450 214° Southwest 463 533 37,000  Level FlightAware ADS-B
Tue 02:59:00 AM 34.9281 -5.9307 222° Southwest  Level Estimated
Tue 02:59:07 AM 34.8280 -5.9620 222° Southwest 464 534 37,000  Level FlightAware ADS-B
Tue 03:00:07 AM 34.7200 -6.0480 213° Southwest 464 534 37,000  Level FlightAware ADS-B
Tue 03:00:47 AM 34.6590 -6.0970 213° Southwest 464 534 37,000  Level FlightAware ADS-B
Tue 03:01:32 AM 34.5670 -6.1710 214° Southwest 464 534 37,000 -353 Level FlightAware ADS-B
Tue 03:02:12 AM 34.4950 -6.2280 213° Southwest 462 532 36,500 -1,059 Descending FlightAware ADS-B
Tue 03:02:57 AM 34.4150 -6.2910 213° Southwest 460 529 35,500 -1,137 Descending FlightAware ADS-B
Tue 03:03:47 AM 34.3340 -6.3550 213° Southwest 447 514 34,700 -3,200 Descending FlightAware ADS-B
Tue 03:04:27 AM 34.2570 -6.4160 213° Southwest 465 535 30,700 -2,526 Descending FlightAware ADS-B
Tue 03:05:22 AM 34.1670 -6.4870 213° Southwest 465 535 30,700  Level FlightAware ADS-B
Tue 03:05:52 AM 34.1210 -6.5230 213° Southwest 465 535 30,700  Level FlightAware ADS-B
Tue 03:08:00 AM 33.9724 -6.7357 230° Southwest  Level Estimated
Tue 03:09:00 AM 33.9026 -6.8352 230° Southwest  Level Estimated
Tue 03:10:00 AM 33.8327 -6.9345 230° Southwest  Level Estimated
Tue 03:11:00 AM 33.7627 -7.0336 230° Southwest  Level Estimated
Tue 03:12:00 AM 33.6927 -7.1326 230° Southwest  Level Estimated
Tue 03:13:00 AM 33.6226 -7.2314 230° Southwest  Level Estimated
Tue 03:14:00 AM 33.5524 -7.3300 230° Southwest  Level Estimated
Tue 03:15:00 AM 33.4822 -7.4285 229° Southwest  Level Estimated
Tue 03:16:00 AM 33.4118 -7.5269 229° Southwest  Level Estimated
Tue 03:17:00 AM 33.3680 -7.5880 229° Southwest  Level Estimated
Tue 03:18:00 AM 33.3680 -7.5880 257° West  Level Estimated
Tue 03:19:00 AM 33.3680 -7.5880 257° West  Level Estimated
Tue 03:20:00 AM 33.3680 -7.5880 257° West  Level Estimated
Tue 03:21:00 AM 33.3680 -7.5880 257° West  Level Estimated
Tue 03:22:00 AM 33.3680 -7.5880 257° West  Level Estimated
Tue 03:23:00 AM 33.3680 -7.5880 257° West  Level Estimated
Tue 03:24:00 AM 33.3680 -7.5880 257° West  Level Estimated
Tue 03:25:00 AM 33.3680 -7.5880 257° West  Level Estimated
Tue 03:26:00 AM 33.3680 -7.5880 257° West  Level Estimated
Tue 03:27:00 AM 33.3680 -7.5880 257° West  Level Estimated
Tue 03:28:00 AM 33.3680 -7.5880 257° West  Level Estimated
Tue 03:29:00 AM 33.3680 -7.5880 257° West  Level Estimated
Tue 03:30:00 AM 33.3680 -7.5880 257° West  Level Estimated
Tue 03:31:00 AM 33.3680 -7.5880 257° West  Level Estimated
Tue 03:32:00 AM 33.3680 -7.5880 257° West  Level Estimated
Tue 03:33:00 AM 33.3680 -7.5880 257° West  Level Estimated
Tue 03:34:00 AM 33.3680 -7.5880 257° West  Level Estimated
Tue 03:35:00 AM 33.3680 -7.5880 257° West  Level Estimated
Tue 03:36:00 AM 33.3680 -7.5880 257° West  Level Estimated

Login

Don't have an account? Register now (free) for customized features, flight alerts, and more!